Terminal Aerodrome Forecast
Issued by NWS

Home | Current Version | Previous Version | Text Only | Print | Product List | Glossary On
Versions: 1 2 3 4 5 6 7 8 9 10 11 12
000
FTUS45 KBOI 181131
TAFMYL
TAF
KMYL 181131Z 1812/1912 VRB06KT P6SM SCT250
      TEMPO 1820/1823 18011G17KT=

USA.gov is the U.S. government's official web portal to all federal, state and local government web resources and services.